sensor_id;sensor_type;location;lat;lon;timestamp;temperature;humidity
22145;DHT22;11238;48.730;11.566;2023-03-04T06:51:10;-1.40;99.90
22145;DHT22;11238;48.730;11.566;2023-03-04T06:53:37;-1.40;99.90
22145;DHT22;11238;48.730;11.566;2023-03-04T06:56:08;-1.30;99.90
22145;DHT22;11238;48.730;11.566;2023-03-04T06:58:35;-1.30;99.90
22145;DHT22;11238;48.730;11.566;2023-03-04T07:01:14;-1.10;99.90
22145;DHT22;11238;48.730;11.566;2023-03-04T07:03:42;-1.00;99.90
22145;DHT22;11238;48.730;11.566;2023-03-04T07:06:12;-0.90;99.90
22145;DHT22;11238;48.730;11.566;2023-03-04T07:08:39;-0.80;99.90
22145;DHT22;11238;48.730;11.566;2023-03-04T07:11:06;-0.80;99.90
22145;DHT22;11238;48.730;11.566;2023-03-04T07:13:32;-0.70;99.90
22145;DHT22;11238;48.730;11.566;2023-03-04T07:16:01;-0.70;99.90
22145;DHT22;11238;48.730;11.566;2023-03-04T07:18:26;-0.70;99.90
22145;DHT22;11238;48.730;11.566;2023-03-04T07:20:52;-0.60;99.90
22145;DHT22;11238;48.730;11.566;2023-03-04T07:23:19;-0.60;99.90
22145;DHT22;11238;48.730;11.566;2023-03-04T07:25:45;-0.50;99.90
22145;DHT22;11238;48.730;11.566;2023-03-04T07:28:13;-0.40;99.90
22145;DHT22;11238;48.730;11.566;2023-03-04T07:30:39;-0.30;99.90
22145;DHT22;11238;48.730;11.566;2023-03-04T07:33:04;-0.30;99.90
22145;DHT22;11238;48.730;11.566;2023-03-04T07:35:30;-0.30;99.90
22145;DHT22;11238;48.730;11.566;2023-03-04T07:37:56;-0.20;99.90
22145;DHT22;11238;48.730;11.566;2023-03-04T07:40:21;-0.20;99.90
22145;DHT22;11238;48.730;11.566;2023-03-04T07:42:51;-0.10;99.90
22145;DHT22;11238;48.730;11.566;2023-03-04T07:45:18;-0.20;99.90
22145;DHT22;11238;48.730;11.566;2023-03-04T07:47:43;0.00;99.90
22145;DHT22;11238;48.730;11.566;2023-03-04T07:55:19;0.30;99.90
22145;DHT22;11238;48.730;11.566;2023-03-04T07:57:46;0.30;99.90
22145;DHT22;11238;48.730;11.566;2023-03-04T08:00:16;0.30;99.90
22145;DHT22;11238;48.730;11.566;2023-03-04T08:02:43;0.40;99.90
22145;DHT22;11238;48.730;11.566;2023-03-04T08:05:09;0.50;99.90
22145;DHT22;11238;48.730;11.566;2023-03-04T08:07:37;0.50;99.90
22145;DHT22;11238;48.730;11.566;2023-03-04T08:10:03;0.50;99.90
22145;DHT22;11238;48.730;11.566;2023-03-04T08:12:30;0.60;99.90
22145;DHT22;11238;48.730;11.566;2023-03-04T08:24:31;0.90;99.90
22145;DHT22;11238;48.730;11.566;2023-03-04T08:27:13;0.90;99.90
22145;DHT22;11238;48.730;11.566;2023-03-04T08:29:39;0.90;99.90
22145;DHT22;11238;48.730;11.566;2023-03-04T08:32:09;0.90;99.90
22145;DHT22;11238;48.730;11.566;2023-03-04T08:34:34;0.90;99.90
22145;DHT22;11238;48.730;11.566;2023-03-04T08:37:03;0.80;99.90
22145;DHT22;11238;48.730;11.566;2023-03-04T08:39:29;0.70;99.90
22145;DHT22;11238;48.730;11.566;2023-03-04T08:41:55;0.60;99.90
22145;DHT22;11238;48.730;11.566;2023-03-04T08:44:21;0.70;99.90
22145;DHT22;11238;48.730;11.566;2023-03-04T08:46:47;0.70;99.90
22145;DHT22;11238;48.730;11.566;2023-03-04T08:49:31;0.70;99.90
22145;DHT22;11238;48.730;11.566;2023-03-04T10:05:14;0.70;99.90
22145;DHT22;11238;48.730;11.566;2023-03-04T10:08:26;0.80;99.90
22145;DHT22;11238;48.730;11.566;2023-03-04T10:10:55;0.90;99.90
22145;DHT22;11238;48.730;11.566;2023-03-04T10:13:46;0.80;99.90
22145;DHT22;11238;48.730;11.566;2023-03-04T10:16:20;0.70;99.90
22145;DHT22;11238;48.730;11.566;2023-03-04T10:18:55;0.80;99.90
22145;DHT22;11238;48.730;11.566;2023-03-04T10:21:29;1.00;99.90
22145;DHT22;11238;48.730;11.566;2023-03-04T10:24:06;0.70;99.90
22145;DHT22;11238;48.730;11.566;2023-03-04T10:26:37;0.80;99.90
22145;DHT22;11238;48.730;11.566;2023-03-04T10:29:03;1.00;99.90
22145;DHT22;11238;48.730;11.566;2023-03-04T10:31:34;0.90;99.90
22145;DHT22;11238;48.730;11.566;2023-03-04T10:34:02;0.90;99.90
22145;DHT22;11238;48.730;11.566;2023-03-04T10:41:53;0.90;99.90
22145;DHT22;11238;48.730;11.566;2023-03-04T10:44:20;1.00;99.90
22145;DHT22;11238;48.730;11.566;2023-03-04T10:46:47;1.00;99.90
22145;DHT22;11238;48.730;11.566;2023-03-04T10:49:16;0.90;99.90
22145;DHT22;11238;48.730;11.566;2023-03-04T10:52:00;1.00;99.90
22145;DHT22;11238;48.730;11.566;2023-03-04T10:54:45;1.00;99.90
22145;DHT22;11238;48.730;11.566;2023-03-04T10:57:36;1.20;99.90
22145;DHT22;11238;48.730;11.566;2023-03-04T11:02:44;1.40;99.90
22145;DHT22;11238;48.730;11.566;2023-03-04T11:07:49;1.10;99.90
22145;DHT22;11238;48.730;11.566;2023-03-04T11:10:27;0.90;99.90
22145;DHT22;11238;48.730;11.566;2023-03-04T11:15:26;1.00;99.90
22145;DHT22;11238;48.730;11.566;2023-03-04T11:18:04;1.10;99.90
22145;DHT22;11238;48.730;11.566;2023-03-04T11:20:33;1.00;99.90
22145;DHT22;11238;48.730;11.566;2023-03-04T11:23:05;1.00;99.90
22145;DHT22;11238;48.730;11.566;2023-03-04T11:25:41;1.00;99.90
22145;DHT22;11238;48.730;11.566;2023-03-04T11:28:25;1.10;99.90
22145;DHT22;11238;48.730;11.566;2023-03-04T11:30:58;1.10;99.90
22145;DHT22;11238;48.730;11.566;2023-03-04T11:33:40;1.20;99.90
22145;DHT22;11238;48.730;11.566;2023-03-04T11:36:49;1.20;99.90
22145;DHT22;11238;48.730;11.566;2023-03-04T11:39:21;1.20;99.90
22145;DHT22;11238;48.730;11.566;2023-03-04T11:41:54;1.30;99.90
22145;DHT22;11238;48.730;11.566;2023-03-04T11:44:23;1.30;99.90
22145;DHT22;11238;48.730;11.566;2023-03-04T11:47:06;1.20;99.90
22145;DHT22;11238;48.730;11.566;2023-03-04T11:58:11;1.40;99.90
22145;DHT22;11238;48.730;11.566;2023-03-04T12:00:53;1.40;99.90
22145;DHT22;11238;48.730;11.566;2023-03-04T12:03:56;1.50;99.90
22145;DHT22;11238;48.730;11.566;2023-03-04T12:15:19;1.40;99.90
22145;DHT22;11238;48.730;11.566;2023-03-04T12:23:25;1.60;99.90
22145;DHT22;11238;48.730;11.566;2023-03-04T12:26:41;1.50;99.90
22145;DHT22;11238;48.730;11.566;2023-03-04T12:29:28;1.50;99.90
22145;DHT22;11238;48.730;11.566;2023-03-04T12:35:07;1.60;99.90
22145;DHT22;11238;48.730;11.566;2023-03-04T12:40:31;1.60;99.90
22145;DHT22;11238;48.730;11.566;2023-03-04T12:46:05;1.60;99.90
22145;DHT22;11238;48.730;11.566;2023-03-04T12:48:40;1.60;99.90
22145;DHT22;11238;48.730;11.566;2023-03-04T12:51:29;1.80;99.90
22145;DHT22;11238;48.730;11.566;2023-03-04T12:54:21;1.80;99.90
22145;DHT22;11238;48.730;11.566;2023-03-04T12:56:55;1.70;99.90
22145;DHT22;11238;48.730;11.566;2023-03-04T12:59:39;1.70;99.90
22145;DHT22;11238;48.730;11.566;2023-03-04T13:02:34;1.80;99.90
22145;DHT22;11238;48.730;11.566;2023-03-04T13:10:44;1.70;99.90
22145;DHT22;11238;48.730;11.566;2023-03-04T13:13:40;1.70;99.90
22145;DHT22;11238;48.730;11.566;2023-03-04T13:18:44;1.80;99.90
22145;DHT22;11238;48.730;11.566;2023-03-04T13:23:59;1.80;99.90
22145;DHT22;11238;48.730;11.566;2023-03-04T13:26:32;1.70;99.90
22145;DHT22;11238;48.730;11.566;2023-03-04T13:32:03;1.60;99.90
22145;DHT22;11238;48.730;11.566;2023-03-04T13:34:49;1.60;99.90
22145;DHT22;11238;48.730;11.566;2023-03-04T13:37:36;1.60;99.90
22145;DHT22;11238;48.730;11.566;2023-03-04T13:43:42;1.60;99.90
22145;DHT22;11238;48.730;11.566;2023-03-04T13:51:34;1.60;99.90
22145;DHT22;11238;48.730;11.566;2023-03-04T13:54:21;1.60;99.90
22145;DHT22;11238;48.730;11.566;2023-03-04T13:59:42;1.60;99.90
22145;DHT22;11238;48.730;11.566;2023-03-04T14:02:18;1.60;99.90
22145;DHT22;11238;48.730;11.566;2023-03-04T14:07:34;1.70;99.90
22145;DHT22;11238;48.730;11.566;2023-03-04T14:15:27;1.70;99.90
22145;DHT22;11238;48.730;11.566;2023-03-04T14:17:59;1.60;99.90
22145;DHT22;11238;48.730;11.566;2023-03-04T14:20:36;1.50;99.90
22145;DHT22;11238;48.730;11.566;2023-03-04T14:23:21;1.50;99.90
22145;DHT22;11238;48.730;11.566;2023-03-04T14:25:48;1.50;99.90
22145;DHT22;11238;48.730;11.566;2023-03-04T14:28:16;1.60;99.90
22145;DHT22;11238;48.730;11.566;2023-03-04T14:30:50;1.50;99.90
22145;DHT22;11238;48.730;11.566;2023-03-04T14:33:21;1.60;99.90
22145;DHT22;11238;48.730;11.566;2023-03-04T14:35:52;1.60;99.90
22145;DHT22;11238;48.730;11.566;2023-03-04T14:38:24;1.60;99.90
22145;DHT22;11238;48.730;11.566;2023-03-04T14:40:59;1.60;99.90
22145;DHT22;11238;48.730;11.566;2023-03-04T14:43:27;1.60;99.90
22145;DHT22;11238;48.730;11.566;2023-03-04T14:46:15;1.50;99.90
22145;DHT22;11238;48.730;11.566;2023-03-04T14:48:50;1.40;99.90
22145;DHT22;11238;48.730;11.566;2023-03-04T14:51:50;1.50;99.90
22145;DHT22;11238;48.730;11.566;2023-03-04T14:54:40;1.50;99.90
22145;DHT22;11238;48.730;11.566;2023-03-04T14:57:24;1.60;99.90
22145;DHT22;11238;48.730;11.566;2023-03-04T14:59:52;1.60;99.90
22145;DHT22;11238;48.730;11.566;2023-03-04T15:02:24;1.60;99.90
22145;DHT22;11238;48.730;11.566;2023-03-04T15:04:59;1.50;99.90
22145;DHT22;11238;48.730;11.566;2023-03-04T15:07:33;1.40;99.90
22145;DHT22;11238;48.730;11.566;2023-03-04T15:10:02;1.50;99.90
22145;DHT22;11238;48.730;11.566;2023-03-04T15:12:31;1.50;99.90
22145;DHT22;11238;48.730;11.566;2023-03-04T15:15:00;1.50;99.90
22145;DHT22;11238;48.730;11.566;2023-03-04T15:17:38;1.40;99.90
22145;DHT22;11238;48.730;11.566;2023-03-04T15:25:05;1.50;99.90
22145;DHT22;11238;48.730;11.566;2023-03-04T15:27:31;1.40;99.90
22145;DHT22;11238;48.730;11.566;2023-03-04T15:29:59;1.40;99.90
22145;DHT22;11238;48.730;11.566;2023-03-04T15:32:28;1.40;99.90
22145;DHT22;11238;48.730;11.566;2023-03-04T15:34:54;1.40;99.90
22145;DHT22;11238;48.730;11.566;2023-03-04T15:37:26;1.40;99.90
22145;DHT22;11238;48.730;11.566;2023-03-04T15:39:54;1.30;99.90
22145;DHT22;11238;48.730;11.566;2023-03-04T15:42:20;1.30;99.90
22145;DHT22;11238;48.730;11.566;2023-03-04T15:44:46;1.30;99.90
22145;DHT22;11238;48.730;11.566;2023-03-04T15:47:13;1.30;99.90
22145;DHT22;11238;48.730;11.566;2023-03-04T15:49:40;1.30;99.90
22145;DHT22;11238;48.730;11.566;2023-03-04T15:52:10;1.20;99.90
22145;DHT22;11238;48.730;11.566;2023-03-04T15:54:37;1.30;99.90
22145;DHT22;11238;48.730;11.566;2023-03-04T15:57:08;1.30;99.90
22145;DHT22;11238;48.730;11.566;2023-03-04T15:59:38;1.40;99.90
22145;DHT22;11238;48.730;11.566;2023-03-04T16:02:10;1.40;99.90
22145;DHT22;11238;48.730;11.566;2023-03-04T16:04:39;1.50;99.90
22145;DHT22;11238;48.730;11.566;2023-03-04T16:07:05;1.40;99.90
22145;DHT22;11238;48.730;11.566;2023-03-04T16:09:31;1.40;99.90
22145;DHT22;11238;48.730;11.566;2023-03-04T16:11:57;1.40;99.90
22145;DHT22;11238;48.730;11.566;2023-03-04T16:14:26;1.40;99.90
22145;DHT22;11238;48.730;11.566;2023-03-04T16:16:51;1.40;99.90
22145;DHT22;11238;48.730;11.566;2023-03-04T16:19:18;1.40;99.90
22145;DHT22;11238;48.730;11.566;2023-03-04T16:21:44;1.40;99.90
22145;DHT22;11238;48.730;11.566;2023-03-04T16:24:15;1.30;99.90
22145;DHT22;11238;48.730;11.566;2023-03-04T16:26:42;1.40;99.90
22145;DHT22;11238;48.730;11.566;2023-03-04T16:29:08;1.40;99.90
22145;DHT22;11238;48.730;11.566;2023-03-04T16:31:35;1.50;99.90
22145;DHT22;11238;48.730;11.566;2023-03-04T16:34:00;1.40;99.90
22145;DHT22;11238;48.730;11.566;2023-03-04T16:36:26;1.50;99.90
22145;DHT22;11238;48.730;11.566;2023-03-04T16:38:58;1.40;99.90
22145;DHT22;11238;48.730;11.566;2023-03-04T16:41:28;1.50;99.90
22145;DHT22;11238;48.730;11.566;2023-03-04T16:43:58;1.50;99.90
22145;DHT22;11238;48.730;11.566;2023-03-04T16:46:24;1.60;99.90
22145;DHT22;11238;48.730;11.566;2023-03-04T16:48:53;1.60;99.90
22145;DHT22;11238;48.730;11.566;2023-03-04T16:51:20;1.70;99.90
22145;DHT22;11238;48.730;11.566;2023-03-04T16:53:53;1.70;99.90
22145;DHT22;11238;48.730;11.566;2023-03-04T16:56:21;1.60;99.90
22145;DHT22;11238;48.730;11.566;2023-03-04T16:58:47;1.50;99.90
22145;DHT22;11238;48.730;11.566;2023-03-04T17:01:25;1.50;99.90
22145;DHT22;11238;48.730;11.566;2023-03-04T17:03:53;1.50;99.90
22145;DHT22;11238;48.730;11.566;2023-03-04T17:06:19;1.40;99.90
22145;DHT22;11238;48.730;11.566;2023-03-04T17:08:46;1.40;99.90
22145;DHT22;11238;48.730;11.566;2023-03-04T17:11:20;1.40;99.90
22145;DHT22;11238;48.730;11.566;2023-03-04T17:14:07;1.40;99.90
22145;DHT22;11238;48.730;11.566;2023-03-04T17:16:33;1.30;99.90
22145;DHT22;11238;48.730;11.566;2023-03-04T17:18:59;1.40;99.90
22145;DHT22;11238;48.730;11.566;2023-03-04T17:21:26;1.40;99.90
22145;DHT22;11238;48.730;11.566;2023-03-04T17:23:52;1.40;99.90
22145;DHT22;11238;48.730;11.566;2023-03-04T17:26:19;1.50;99.90
22145;DHT22;11238;48.730;11.566;2023-03-04T17:28:50;1.40;99.90
22145;DHT22;11238;48.730;11.566;2023-03-04T17:31:36;1.40;99.90
22145;DHT22;11238;48.730;11.566;2023-03-04T17:34:02;1.40;99.90
22145;DHT22;11238;48.730;11.566;2023-03-04T17:36:29;1.40;99.90
22145;DHT22;11238;48.730;11.566;2023-03-04T17:38:55;1.40;99.90
22145;DHT22;11238;48.730;11.566;2023-03-04T17:41:21;1.40;99.90
22145;DHT22;11238;48.730;11.566;2023-03-04T17:43:50;1.40;99.90
22145;DHT22;11238;48.730;11.566;2023-03-04T17:46:19;1.40;99.90
22145;DHT22;11238;48.730;11.566;2023-03-04T17:48:46;1.40;99.90
22145;DHT22;11238;48.730;11.566;2023-03-04T17:51:12;1.40;99.90
22145;DHT22;11238;48.730;11.566;2023-03-04T17:53:38;1.50;99.90
22145;DHT22;11238;48.730;11.566;2023-03-04T17:56:06;1.50;99.90
22145;DHT22;11238;48.730;11.566;2023-03-04T17:58:34;1.50;99.90
22145;DHT22;11238;48.730;11.566;2023-03-04T18:01:08;1.40;99.90
22145;DHT22;11238;48.730;11.566;2023-03-04T18:03:36;1.40;99.90
22145;DHT22;11238;48.730;11.566;2023-03-04T18:06:02;1.50;99.90
22145;DHT22;11238;48.730;11.566;2023-03-04T18:08:27;1.50;99.90
22145;DHT22;11238;48.730;11.566;2023-03-04T18:11:16;1.50;99.90
22145;DHT22;11238;48.730;11.566;2023-03-04T18:13:42;1.50;99.90
22145;DHT22;11238;48.730;11.566;2023-03-04T18:16:08;1.50;99.90
22145;DHT22;11238;48.730;11.566;2023-03-04T18:18:36;1.50;99.90
22145;DHT22;11238;48.730;11.566;2023-03-04T18:21:26;1.50;99.90
22145;DHT22;11238;48.730;11.566;2023-03-04T18:23:52;1.50;99.90
22145;DHT22;11238;48.730;11.566;2023-03-04T18:26:20;1.50;99.90
22145;DHT22;11238;48.730;11.566;2023-03-04T18:28:50;1.50;99.90
22145;DHT22;11238;48.730;11.566;2023-03-04T18:31:18;1.50;99.90
22145;DHT22;11238;48.730;11.566;2023-03-04T18:33:44;1.50;99.90
22145;DHT22;11238;48.730;11.566;2023-03-04T18:36:11;1.50;99.90
22145;DHT22;11238;48.730;11.566;2023-03-04T18:38:38;1.50;99.90
22145;DHT22;11238;48.730;11.566;2023-03-04T18:41:06;1.50;99.90
22145;DHT22;11238;48.730;11.566;2023-03-04T18:43:32;1.40;99.90
22145;DHT22;11238;48.730;11.566;2023-03-04T18:48:44;1.50;99.90
22145;DHT22;11238;48.730;11.566;2023-03-04T18:51:11;1.60;99.90
22145;DHT22;11238;48.730;11.566;2023-03-04T18:53:37;1.50;99.90
22145;DHT22;11238;48.730;11.566;2023-03-04T18:56:11;1.50;99.90
22145;DHT22;11238;48.730;11.566;2023-03-04T18:58:39;1.50;99.90
22145;DHT22;11238;48.730;11.566;2023-03-04T19:01:08;1.60;99.90
22145;DHT22;11238;48.730;11.566;2023-03-04T19:03:37;1.70;99.90
22145;DHT22;11238;48.730;11.566;2023-03-04T19:06:04;1.60;99.90
22145;DHT22;11238;48.730;11.566;2023-03-04T19:08:52;1.60;99.90
22145;DHT22;11238;48.730;11.566;2023-03-04T19:11:21;1.60;99.90
22145;DHT22;11238;48.730;11.566;2023-03-04T19:13:48;1.50;99.90
22145;DHT22;11238;48.730;11.566;2023-03-04T19:16:13;1.60;99.90
22145;DHT22;11238;48.730;11.566;2023-03-04T19:18:40;1.60;99.90
22145;DHT22;11238;48.730;11.566;2023-03-04T19:21:06;1.50;99.90
22145;DHT22;11238;48.730;11.566;2023-03-04T19:23:32;1.60;99.90
22145;DHT22;11238;48.730;11.566;2023-03-04T19:25:58;1.50;99.90
22145;DHT22;11238;48.730;11.566;2023-03-04T19:28:23;1.50;99.90
22145;DHT22;11238;48.730;11.566;2023-03-04T19:30:50;1.50;99.90
22145;DHT22;11238;48.730;11.566;2023-03-04T19:33:18;1.50;99.90
22145;DHT22;11238;48.730;11.566;2023-03-04T19:35:45;1.50;99.90
22145;DHT22;11238;48.730;11.566;2023-03-04T19:38:12;1.50;99.90
22145;DHT22;11238;48.730;11.566;2023-03-04T19:40:41;1.60;99.90
22145;DHT22;11238;48.730;11.566;2023-03-04T19:43:12;1.60;99.90
22145;DHT22;11238;48.730;11.566;2023-03-04T19:45:38;1.60;99.90
22145;DHT22;11238;48.730;11.566;2023-03-04T19:48:05;1.60;99.90
22145;DHT22;11238;48.730;11.566;2023-03-04T19:50:31;1.50;99.90
22145;DHT22;11238;48.730;11.566;2023-03-04T19:52:57;1.60;99.90
22145;DHT22;11238;48.730;11.566;2023-03-04T19:55:23;1.50;99.90
22145;DHT22;11238;48.730;11.566;2023-03-04T19:57:49;1.60;99.90
22145;DHT22;11238;48.730;11.566;2023-03-04T20:00:15;1.60;99.90
22145;DHT22;11238;48.730;11.566;2023-03-04T20:03:03;1.50;99.90
22145;DHT22;11238;48.730;11.566;2023-03-04T20:05:32;1.50;99.90
22145;DHT22;11238;48.730;11.566;2023-03-04T20:07:59;1.50;99.90
22145;DHT22;11238;48.730;11.566;2023-03-04T20:10:30;1.50;99.90
22145;DHT22;11238;48.730;11.566;2023-03-04T20:12:57;1.50;99.90
22145;DHT22;11238;48.730;11.566;2023-03-04T20:15:22;1.50;99.90
22145;DHT22;11238;48.730;11.566;2023-03-04T20:17:48;1.50;99.90
22145;DHT22;11238;48.730;11.566;2023-03-04T20:20:13;1.50;99.90
22145;DHT22;11238;48.730;11.566;2023-03-04T20:22:41;1.50;99.90
22145;DHT22;11238;48.730;11.566;2023-03-04T20:25:07;1.50;99.90
22145;DHT22;11238;48.730;11.566;2023-03-04T20:27:33;1.50;99.90
22145;DHT22;11238;48.730;11.566;2023-03-04T20:29:59;1.50;99.90
22145;DHT22;11238;48.730;11.566;2023-03-04T20:32:25;1.50;99.90
22145;DHT22;11238;48.730;11.566;2023-03-04T20:34:51;1.40;99.90
22145;DHT22;11238;48.730;11.566;2023-03-04T20:37:22;1.50;99.90
22145;DHT22;11238;48.730;11.566;2023-03-04T20:39:48;1.40;99.90
22145;DHT22;11238;48.730;11.566;2023-03-04T20:42:15;1.40;99.90
22145;DHT22;11238;48.730;11.566;2023-03-04T20:44:40;1.40;99.90
22145;DHT22;11238;48.730;11.566;2023-03-04T20:47:06;1.50;99.90
22145;DHT22;11238;48.730;11.566;2023-03-04T20:49:33;1.40;99.90
22145;DHT22;11238;48.730;11.566;2023-03-04T20:52:00;1.40;99.90
22145;DHT22;11238;48.730;11.566;2023-03-04T20:54:32;1.40;99.90
22145;DHT22;11238;48.730;11.566;2023-03-04T20:56:58;1.40;99.90
22145;DHT22;11238;48.730;11.566;2023-03-04T20:59:25;1.30;99.90
22145;DHT22;11238;48.730;11.566;2023-03-04T21:01:52;1.30;99.90
22145;DHT22;11238;48.730;11.566;2023-03-04T21:04:18;1.30;99.90
22145;DHT22;11238;48.730;11.566;2023-03-04T21:06:45;1.30;99.90
22145;DHT22;11238;48.730;11.566;2023-03-04T21:09:14;1.20;99.90
22145;DHT22;11238;48.730;11.566;2023-03-04T21:11:42;1.30;99.90
22145;DHT22;11238;48.730;11.566;2023-03-04T21:14:14;1.30;99.90
22145;DHT22;11238;48.730;11.566;2023-03-04T21:16:40;1.40;99.90
22145;DHT22;11238;48.730;11.566;2023-03-04T21:19:16;1.30;99.90
22145;DHT22;11238;48.730;11.566;2023-03-04T21:21:42;1.30;99.90
22145;DHT22;11238;48.730;11.566;2023-03-04T21:24:12;1.30;99.90
22145;DHT22;11238;48.730;11.566;2023-03-04T21:26:38;1.40;99.90
22145;DHT22;11238;48.730;11.566;2023-03-04T21:29:04;1.30;99.90
22145;DHT22;11238;48.730;11.566;2023-03-04T21:31:34;1.40;99.90
22145;DHT22;11238;48.730;11.566;2023-03-04T21:34:02;1.40;99.90
22145;DHT22;11238;48.730;11.566;2023-03-04T21:36:27;1.30;99.90
22145;DHT22;11238;48.730;11.566;2023-03-04T21:38:53;1.40;99.90
22145;DHT22;11238;48.730;11.566;2023-03-04T21:41:21;1.30;99.90
22145;DHT22;11238;48.730;11.566;2023-03-04T21:43:48;1.40;99.90
22145;DHT22;11238;48.730;11.566;2023-03-04T21:46:15;1.40;99.90
22145;DHT22;11238;48.730;11.566;2023-03-04T21:48:41;1.40;99.90
22145;DHT22;11238;48.730;11.566;2023-03-04T21:51:11;1.40;99.90
22145;DHT22;11238;48.730;11.566;2023-03-04T21:53:37;1.30;99.90
22145;DHT22;11238;48.730;11.566;2023-03-04T21:56:03;1.30;99.90
22145;DHT22;11238;48.730;11.566;2023-03-04T21:58:30;1.40;99.90
22145;DHT22;11238;48.730;11.566;2023-03-04T22:00:56;1.40;99.90
22145;DHT22;11238;48.730;11.566;2023-03-04T22:03:23;1.40;99.90
22145;DHT22;11238;48.730;11.566;2023-03-04T22:05:49;1.40;99.90
22145;DHT22;11238;48.730;11.566;2023-03-04T22:08:17;1.30;99.90
22145;DHT22;11238;48.730;11.566;2023-03-04T22:10:44;1.40;99.90
22145;DHT22;11238;48.730;11.566;2023-03-04T22:13:12;1.30;99.90
22145;DHT22;11238;48.730;11.566;2023-03-04T22:15:41;1.30;99.90
22145;DHT22;11238;48.730;11.566;2023-03-04T22:18:09;1.40;99.90
22145;DHT22;11238;48.730;11.566;2023-03-04T22:20:42;1.40;99.90
22145;DHT22;11238;48.730;11.566;2023-03-04T22:23:30;1.40;99.90
22145;DHT22;11238;48.730;11.566;2023-03-04T22:26:04;1.40;99.90
22145;DHT22;11238;48.730;11.566;2023-03-04T22:28:31;1.30;99.90
22145;DHT22;11238;48.730;11.566;2023-03-04T22:30:58;1.40;99.90
22145;DHT22;11238;48.730;11.566;2023-03-04T22:33:24;1.40;99.90
22145;DHT22;11238;48.730;11.566;2023-03-04T22:35:51;1.40;99.90
22145;DHT22;11238;48.730;11.566;2023-03-04T22:38:17;1.40;99.90
22145;DHT22;11238;48.730;11.566;2023-03-04T22:40:43;1.40;99.90
22145;DHT22;11238;48.730;11.566;2023-03-04T22:43:09;1.30;99.90
22145;DHT22;11238;48.730;11.566;2023-03-04T22:45:35;1.40;99.90
22145;DHT22;11238;48.730;11.566;2023-03-04T22:48:02;1.30;99.90
22145;DHT22;11238;48.730;11.566;2023-03-04T22:50:46;1.40;99.90
22145;DHT22;11238;48.730;11.566;2023-03-04T22:53:11;1.40;99.90
22145;DHT22;11238;48.730;11.566;2023-03-04T22:55:37;1.40;99.90
22145;DHT22;11238;48.730;11.566;2023-03-04T22:58:25;1.40;99.90
22145;DHT22;11238;48.730;11.566;2023-03-04T23:00:51;1.40;99.90
22145;DHT22;11238;48.730;11.566;2023-03-04T23:03:17;1.40;99.90
22145;DHT22;11238;48.730;11.566;2023-03-04T23:05:43;1.40;99.90
22145;DHT22;11238;48.730;11.566;2023-03-04T23:08:09;1.40;99.90
22145;DHT22;11238;48.730;11.566;2023-03-04T23:10:35;1.40;99.90
22145;DHT22;11238;48.730;11.566;2023-03-04T23:13:01;1.30;99.90
22145;DHT22;11238;48.730;11.566;2023-03-04T23:15:27;1.40;99.90
22145;DHT22;11238;48.730;11.566;2023-03-04T23:17:53;1.30;99.90
22145;DHT22;11238;48.730;11.566;2023-03-04T23:20:20;1.40;99.90
22145;DHT22;11238;48.730;11.566;2023-03-04T23:22:46;1.30;99.90
22145;DHT22;11238;48.730;11.566;2023-03-04T23:25:13;1.30;99.90
22145;DHT22;11238;48.730;11.566;2023-03-04T23:28:00;1.30;99.90
22145;DHT22;11238;48.730;11.566;2023-03-04T23:30:26;1.30;99.90
22145;DHT22;11238;48.730;11.566;2023-03-04T23:32:52;1.30;99.90
22145;DHT22;11238;48.730;11.566;2023-03-04T23:35:18;1.40;99.90
22145;DHT22;11238;48.730;11.566;2023-03-04T23:37:44;1.30;99.90
22145;DHT22;11238;48.730;11.566;2023-03-04T23:40:10;1.30;99.90
22145;DHT22;11238;48.730;11.566;2023-03-04T23:42:37;1.30;99.90
22145;DHT22;11238;48.730;11.566;2023-03-04T23:45:03;1.40;99.90
22145;DHT22;11238;48.730;11.566;2023-03-04T23:47:29;1.30;99.90
22145;DHT22;11238;48.730;11.566;2023-03-04T23:49:55;1.30;99.90
22145;DHT22;11238;48.730;11.566;2023-03-04T23:52:22;1.30;99.90
22145;DHT22;11238;48.730;11.566;2023-03-04T23:54:48;1.30;99.90
22145;DHT22;11238;48.730;11.566;2023-03-04T23:57:14;1.30;99.90
22145;DHT22;11238;48.730;11.566;2023-03-04T23:59:39;1.30;99.90
